createdAt,value
2017-11-22T00:33:07.453Z,14.04
2017-11-22T00:33:11.746Z,14.20
2017-11-22T00:33:16.771Z,14.20
2017-11-22T00:33:21.791Z,13.97
2017-11-22T00:33:26.109Z,14.00
2017-11-22T00:33:30.381Z,13.93
2017-11-22T00:33:35.407Z,13.65
2017-11-22T00:33:40.467Z,13.60
2017-11-22T00:33:44.720Z,13.80
2017-11-22T00:33:49.031Z,13.75
2017-11-22T00:33:54.040Z,13.77
2017-11-22T00:33:59.084Z,13.83
2017-11-22T00:34:04.089Z,13.83
2017-11-22T00:34:08.418Z,13.80
2017-11-22T00:34:12.710Z,13.95
2017-11-22T00:34:17.031Z,14.15
2017-11-22T00:34:21.260Z,14.33
2017-11-22T00:34:26.319Z,14.30
2017-11-22T00:34:31.360Z,14.43
2017-11-22T00:34:35.624Z,14.70
2017-11-22T00:34:40.652Z,14.95
2017-11-22T00:34:45.660Z,15.03
2017-11-22T00:34:50.693Z,15.33
2017-11-22T00:34:55.709Z,15.52
2017-11-22T00:35:00.739Z,15.33
2017-11-22T00:35:05.005Z,15.17
2017-11-22T00:35:09.268Z,15.15
2017-11-22T00:35:13.500Z,15.00
2017-11-22T00:35:17.767Z,14.85
2017-11-22T00:35:22.165Z,14.67
2017-11-22T00:35:26.407Z,14.70
2017-11-22T00:35:31.571Z,14.60
2017-11-22T00:35:35.852Z,14.57
2017-11-22T00:35:40.882Z,14.20
2017-11-22T00:35:45.136Z,14.33
2017-11-22T00:35:49.393Z,14.10
2017-11-22T00:35:53.652Z,14.15
2017-11-22T00:35:58.381Z,14.20
2017-11-22T00:36:03.424Z,14.27
2017-11-22T00:36:08.530Z,14.30
2017-11-22T00:36:12.790Z,14.37
2017-11-22T00:36:17.245Z,14.65
2017-11-22T00:36:21.509Z,14.65
2017-11-22T00:36:26.341Z,14.50
2017-11-22T00:36:30.597Z,14.53
2017-11-22T00:36:34.871Z,14.40
2017-11-22T00:36:39.112Z,14.30
2017-11-22T00:36:43.458Z,14.20
2017-11-22T00:36:48.461Z,14.20
2017-11-22T00:36:53.740Z,14.20
2017-11-22T00:36:57.971Z,14.17
2017-11-22T00:37:02.760Z,14.30
2017-11-22T00:37:07.034Z,14.20
2017-11-22T00:37:11.268Z,14.30
2017-11-22T00:37:15.608Z,14.30
2017-11-22T00:37:20.616Z,14.45
2017-11-22T00:37:25.705Z,14.63
2017-11-22T00:37:29.964Z,14.80
2017-11-22T00:37:34.210Z,14.90
2017-11-22T00:37:38.537Z,14.95
2017-11-22T00:37:43.551Z,15.25
2017-11-22T00:37:48.571Z,15.30
2017-11-22T00:37:53.608Z,15.30
2017-11-22T00:37:57.849Z,15.37
2017-11-22T00:38:02.116Z,15.27
2017-11-22T00:38:07.217Z,15.35
2017-11-22T00:38:12.256Z,15.17
2017-11-22T00:38:16.498Z,15.00
2017-11-22T00:38:20.770Z,14.80
2017-11-22T00:38:25.057Z,14.53
2017-11-22T00:38:29.304Z,14.80
2017-11-22T00:38:33.562Z,14.95
2017-11-22T00:38:38.578Z,15.00
2017-11-22T00:38:42.947Z,14.60
2017-11-22T00:38:48.101Z,14.77
2017-11-22T00:38:52.432Z,14.73
2017-11-22T00:38:57.584Z,14.60
2017-11-22T00:39:01.873Z,14.85
2017-11-22T00:39:08.212Z,14.97
2017-11-22T00:39:12.493Z,15.10
2017-11-22T00:39:16.730Z,15.10
2017-11-22T00:39:20.993Z,15.30
2017-11-22T00:39:25.642Z,15.50
2017-11-22T00:40:37.487Z,14.70
2017-11-22T00:40:42.063Z,14.80
2017-11-22T00:40:46.326Z,14.87
2017-11-22T00:40:51.407Z,14.85
2017-11-22T00:40:55.675Z,14.63
2017-11-22T00:41:01.301Z,14.55
2017-11-22T00:41:05.541Z,14.57
2017-11-22T00:41:09.806Z,14.50
2017-11-22T00:41:14.817Z,14.75
2017-11-22T00:41:19.845Z,15.27
2017-11-22T00:41:24.853Z,15.53
2017-11-22T00:41:29.915Z,15.63
2017-11-22T00:41:34.263Z,15.80
2017-11-22T00:41:38.502Z,15.70
2017-11-22T00:41:42.750Z,15.40
2017-11-22T00:41:47.019Z,15.13
2017-11-22T00:41:52.192Z,15.20
2017-11-22T00:41:56.449Z,15.10
2017-11-22T00:42:00.700Z,15.10
2017-11-22T00:42:05.717Z,15.17
2017-11-22T00:42:10.062Z,15.20
2017-11-22T00:42:14.336Z,14.85
2017-11-22T00:42:18.645Z,14.50
2017-11-22T00:42:22.924Z,14.30
2017-11-22T00:42:27.236Z,14.50
2017-11-22T00:42:32.352Z,14.30
2017-11-22T00:42:36.697Z,14.37
2017-11-22T00:42:41.043Z,14.67
2017-11-22T00:42:46.065Z,15.00
2017-11-22T00:42:52.077Z,14.93
2017-11-22T00:42:57.221Z,14.95
2017-11-22T00:43:01.512Z,14.77
2017-11-22T00:43:05.781Z,14.67
2017-11-22T00:43:10.055Z,14.60
2017-11-22T00:43:14.308Z,14.85
2017-11-22T00:43:18.579Z,14.90
2017-11-22T00:43:23.403Z,14.85
2017-11-22T00:43:27.677Z,14.80
2017-11-22T00:43:31.928Z,14.95
2017-11-22T00:43:37.160Z,15.10
2017-11-22T00:43:41.674Z,14.73
2017-11-22T00:43:46.716Z,14.70
2017-11-22T00:43:50.985Z,14.70
2017-11-22T00:43:56.015Z,14.45
2017-11-22T00:44:00.292Z,14.60
2017-11-22T00:44:04.563Z,14.57
2017-11-22T00:44:09.016Z,14.40
2017-11-22T00:44:14.075Z,14.20
2017-11-22T00:44:18.328Z,14.07
2017-11-22T00:44:22.594Z,14.15
2017-11-22T00:44:26.858Z,14.25
2017-11-22T00:44:31.112Z,14.30
2017-11-22T00:44:35.376Z,14.40
2017-11-22T00:44:39.628Z,14.60
2017-11-22T00:44:44.652Z,14.55
2017-11-22T00:44:49.746Z,14.50
2017-11-22T00:44:54.021Z,14.67
2017-11-22T00:44:58.288Z,14.77
2017-11-22T00:45:02.556Z,14.80
2017-11-22T00:45:06.814Z,14.95
2017-11-22T00:45:11.084Z,15.20
2017-11-22T00:45:16.113Z,15.45
2017-11-22T00:45:20.360Z,15.40
2017-11-22T00:45:24.625Z,15.05
2017-11-22T00:45:28.915Z,15.00
2017-11-22T00:45:33.969Z,14.83
2017-11-22T00:45:38.293Z,14.80
2017-11-22T00:45:42.540Z,14.70
2017-11-22T00:45:46.795Z,14.80
2017-11-22T00:45:51.058Z,15.00
2017-11-22T00:45:55.306Z,15.15
2017-11-22T00:46:00.352Z,15.20
2017-11-22T00:46:05.381Z,15.20
2017-11-22T00:46:09.629Z,15.20
2017-11-22T00:46:13.914Z,15.17
2017-11-22T00:46:18.173Z,15.20
2017-11-22T00:46:22.434Z,15.25
2017-11-22T00:46:26.698Z,15.20
2017-11-22T00:46:30.985Z,15.00
2017-11-22T00:46:35.247Z,15.20
2017-11-22T00:46:39.640Z,14.95
2017-11-22T00:46:44.649Z,14.73
2017-11-22T00:46:48.919Z,14.50
2017-11-22T00:46:53.186Z,14.25
2017-11-22T00:46:58.208Z,13.80
2017-11-22T00:47:03.242Z,14.03
2017-11-22T00:47:08.259Z,14.07
2017-11-22T00:47:12.532Z,13.93
2017-11-22T00:47:18.331Z,13.90
2017-11-22T00:47:22.603Z,13.90
2017-11-22T00:47:26.870Z,13.90
2017-11-22T00:47:31.881Z,14.00
2017-11-22T00:47:36.571Z,13.90
2017-11-22T00:47:40.881Z,14.00
2017-11-22T00:47:45.175Z,14.10
2017-11-22T00:47:49.495Z,14.20
2017-11-22T00:47:53.824Z,14.30
2017-11-22T00:47:58.836Z,14.30
2017-11-22T00:48:03.102Z,13.97
2017-11-22T00:48:07.354Z,14.00
2017-11-22T00:48:11.960Z,14.15
2017-11-22T00:48:16.212Z,14.17
2017-11-22T00:48:20.484Z,14.10
2017-11-22T00:48:24.721Z,14.00
2017-11-22T00:48:28.969Z,13.90
2017-11-22T00:48:33.250Z,13.90
2017-11-22T00:48:38.281Z,13.95
2017-11-22T00:48:42.533Z,13.93
2017-11-22T00:48:46.784Z,13.90
2017-11-22T00:48:51.048Z,13.90
2017-11-22T00:48:55.322Z,13.80
2017-11-22T00:48:59.585Z,13.90
2017-11-22T00:49:03.829Z,13.70
2017-11-22T00:49:08.101Z,13.70
2017-11-22T00:49:12.344Z,13.55
2017-11-22T00:49:16.603Z,13.50
2017-11-22T00:49:20.856Z,13.70
2017-11-22T00:49:25.928Z,13.70
2017-11-22T00:49:30.182Z,13.87
2017-11-22T00:49:35.191Z,13.80
2017-11-22T00:49:40.230Z,13.63
2017-11-22T00:49:44.476Z,13.70
2017-11-22T00:49:48.742Z,13.83
2017-11-22T00:49:53.012Z,13.80
2017-11-22T00:49:58.035Z,13.75
2017-11-22T00:50:03.262Z,13.73
2017-11-22T00:50:08.281Z,13.93
2017-11-22T00:50:13.330Z,14.03
2017-11-22T00:50:17.574Z,13.95
2017-11-22T00:50:21.832Z,13.85
2017-11-22T00:50:26.081Z,14.00
2017-11-22T00:50:30.348Z,13.75
2017-11-22T00:50:34.607Z,13.73
2017-11-22T00:50:38.897Z,14.00
2017-11-22T00:50:43.927Z,14.10
2017-11-22T00:50:48.362Z,13.97
2017-11-22T00:50:52.625Z,14.10
2017-11-22T00:50:56.910Z,14.30
2017-11-22T00:51:01.175Z,14.25
2017-11-22T00:51:05.960Z,14.17
2017-11-22T00:51:10.228Z,14.15
2017-11-22T00:51:15.282Z,14.00
2017-11-22T00:51:19.549Z,14.20
2017-11-22T00:51:23.806Z,14.20
2017-11-22T00:51:28.064Z,14.30
2017-11-22T00:51:33.069Z,14.60
2017-11-22T00:51:37.368Z,14.50
2017-11-22T00:51:41.619Z,14.35
2017-11-22T00:51:45.884Z,14.45
2017-11-22T00:51:50.159Z,14.35
2017-11-22T00:51:54.413Z,14.00
2017-11-22T00:51:58.698Z,14.05
2017-11-22T00:52:02.945Z,14.30
2017-11-22T00:52:07.219Z,14.30
2017-11-22T00:52:11.478Z,14.50
2017-11-22T00:52:16.488Z,14.45
2017-11-22T00:52:20.763Z,14.30
2017-11-22T00:52:25.006Z,14.43
2017-11-22T00:52:29.264Z,14.40
2017-11-22T00:52:33.518Z,14.40
2017-11-22T00:52:38.522Z,14.30
2017-11-22T00:52:42.777Z,14.35
2017-11-22T00:52:47.056Z,14.10
2017-11-22T00:52:51.315Z,14.20
2017-11-22T00:52:55.577Z,14.45
2017-11-22T00:52:59.826Z,14.50
2017-11-22T00:53:04.091Z,14.30
2017-11-22T00:53:08.338Z,14.35
2017-11-22T00:53:12.596Z,14.45
2017-11-22T00:53:16.878Z,14.67
2017-11-22T00:53:21.153Z,14.85
2017-11-22T00:53:25.406Z,14.90
2017-11-22T00:53:29.658Z,15.10
2017-11-22T00:53:33.911Z,15.20
2017-11-22T00:54:46.334Z,15.40
2017-11-22T00:54:50.598Z,15.50
2017-11-22T00:54:54.870Z,15.45
2017-11-22T00:54:59.936Z,15.25
2017-11-22T00:55:04.956Z,15.20
2017-11-22T00:55:09.960Z,15.00
2017-11-22T00:55:14.999Z,14.80
2017-11-22T00:55:20.039Z,14.77
2017-11-22T00:55:24.317Z,14.60
2017-11-22T00:55:29.338Z,14.55
2017-11-22T00:55:34.382Z,14.47
2017-11-22T00:55:38.642Z,14.20
2017-11-22T00:55:42.882Z,14.10
2017-11-22T00:55:47.146Z,14.03
2017-11-22T00:55:52.172Z,13.90
2017-11-22T00:55:57.192Z,14.07
2017-11-22T00:56:02.227Z,14.20
2017-11-22T00:56:06.489Z,14.33
2017-11-22T00:56:10.734Z,14.35
2017-11-22T00:56:14.999Z,14.30
2017-11-22T00:56:19.251Z,14.30
2017-11-22T00:56:23.520Z,14.15
2017-11-22T00:56:27.985Z,14.00
2017-11-22T00:56:32.244Z,14.07
2017-11-22T00:56:36.504Z,14.20
2017-11-22T00:56:41.525Z,14.10
2017-11-22T00:56:46.535Z,14.10
2017-11-22T00:56:50.785Z,14.30
2017-11-22T00:56:55.048Z,14.50
2017-11-22T00:57:00.064Z,14.50
2017-11-22T00:57:05.077Z,14.47
2017-11-22T00:57:10.093Z,14.27
2017-11-22T00:57:15.104Z,14.43
2017-11-22T00:57:19.366Z,14.37
2017-11-22T00:57:23.630Z,14.57
2017-11-22T00:57:28.651Z,14.60
2017-11-22T00:57:32.897Z,14.70
2017-11-22T00:57:37.168Z,14.60
2017-11-22T00:57:41.408Z,14.50
2017-11-22T00:57:46.422Z,14.33
2017-11-22T00:57:50.685Z,14.07
2017-11-22T00:57:54.948Z,13.85
2017-11-22T00:57:59.208Z,13.80
2017-11-22T00:58:03.472Z,13.87
2017-11-22T00:58:08.511Z,13.85
2017-11-22T00:58:12.782Z,13.77
2017-11-22T00:58:17.790Z,13.75
2017-11-22T00:58:22.822Z,13.70
2017-11-22T00:58:27.838Z,13.70
2017-11-22T00:58:32.863Z,13.80
2017-11-22T00:58:37.920Z,14.07
2017-11-22T00:58:42.176Z,14.30
2017-11-22T00:58:47.203Z,14.70
2017-11-22T00:58:51.459Z,14.90
2017-11-22T00:58:55.713Z,15.00
2017-11-22T00:58:59.960Z,15.10
2017-11-22T00:59:04.250Z,15.00
2017-11-22T00:59:08.500Z,15.25
2017-11-22T00:59:12.743Z,15.20
2017-11-22T00:59:16.997Z,15.05
2017-11-22T00:59:22.011Z,15.03
2017-11-22T00:59:27.090Z,14.83
2017-11-22T00:59:31.333Z,14.77
2017-11-22T00:59:36.360Z,14.45
2017-11-22T00:59:40.628Z,14.27
2017-11-22T00:59:44.889Z,14.00
2017-11-22T00:59:49.144Z,14.10
2017-11-22T00:59:54.183Z,14.10
2017-11-22T00:59:58.425Z,14.00
2017-11-22T01:00:02.687Z,14.00
2017-11-22T01:00:06.968Z,13.90
2017-11-22T01:00:11.980Z,14.20
2017-11-22T01:00:16.249Z,14.23
2017-11-22T01:00:20.513Z,14.30
2017-11-22T01:00:24.788Z,14.40
2017-11-22T01:00:29.062Z,14.45
2017-11-22T01:00:34.120Z,14.70
2017-11-22T01:00:39.144Z,14.83
2017-11-22T01:00:43.390Z,14.77
2017-11-22T01:00:47.675Z,14.57
2017-11-22T01:00:51.943Z,14.50
2017-11-22T01:00:56.191Z,14.30
2017-11-22T01:01:00.464Z,14.30
2017-11-22T01:01:04.725Z,14.30
2017-11-22T01:01:09.758Z,14.20
2017-11-22T01:01:14.019Z,14.30
2017-11-22T01:01:18.292Z,14.30
2017-11-22T01:01:22.560Z,14.43
2017-11-22T01:01:26.817Z,14.50
2017-11-22T01:01:31.072Z,14.35
2017-11-22T01:01:35.372Z,14.35
2017-11-22T01:01:39.634Z,14.47
2017-11-22T01:01:43.878Z,14.80
2017-11-22T01:01:48.139Z,14.75
2017-11-22T01:01:53.178Z,14.73
2017-11-22T01:01:58.219Z,15.00
2017-11-22T01:02:02.474Z,15.00
2017-11-22T01:02:07.524Z,14.90
2017-11-22T01:02:12.679Z,14.87
2017-11-22T01:02:16.928Z,14.77
2017-11-22T01:02:21.969Z,14.43
2017-11-22T01:02:26.251Z,14.33
2017-11-22T01:02:30.511Z,14.30
2017-11-22T01:02:34.780Z,14.15
2017-11-22T01:02:39.033Z,13.95
2017-11-22T01:02:44.070Z,13.90
2017-11-22T01:02:48.322Z,13.87
2017-11-22T01:02:52.588Z,13.80
2017-11-22T01:02:56.884Z,13.60
2017-11-22T01:03:01.150Z,13.60
2017-11-22T01:03:05.418Z,13.55
2017-11-22T01:03:09.682Z,13.50
2017-11-22T01:03:13.965Z,13.53
2017-11-22T01:03:18.985Z,13.90
2017-11-22T01:03:24.012Z,14.03
2017-11-22T01:03:29.047Z,14.30
2017-11-22T01:03:51.034Z,13.50
2017-11-22T01:03:56.048Z,14.30
2017-11-22T01:04:01.072Z,14.63
2017-11-22T01:04:05.338Z,14.53
2017-11-22T01:04:09.603Z,14.83
2017-11-22T01:04:13.869Z,15.15
2017-11-22T01:04:18.882Z,14.90
2017-11-22T01:04:23.140Z,14.77
2017-11-22T01:04:27.408Z,14.70
2017-11-22T01:04:31.663Z,14.90
2017-11-22T01:04:35.928Z,14.90
2017-11-22T01:04:40.184Z,14.70
2017-11-22T01:04:45.221Z,14.70
2017-11-22T01:04:49.489Z,14.80
2017-11-22T01:04:53.746Z,14.75
2017-11-22T01:04:58.011Z,14.70
2017-11-22T01:05:03.023Z,14.73
2017-11-22T01:05:07.295Z,14.67
2017-11-22T01:05:11.537Z,14.55
2017-11-22T01:05:15.793Z,14.40
2017-11-22T01:05:20.073Z,14.47
2017-11-22T01:05:24.353Z,14.50
2017-11-22T01:05:28.593Z,14.60
2017-11-22T01:05:32.846Z,14.40
2017-11-22T01:05:37.117Z,14.33
2017-11-22T01:05:41.369Z,14.10
2017-11-22T01:05:45.626Z,13.85
2017-11-22T01:05:50.645Z,13.80
2017-11-22T01:05:55.687Z,13.80
2017-11-22T01:05:59.939Z,13.73
2017-11-22T01:06:04.211Z,13.80
2017-11-22T01:06:08.487Z,13.75
2017-11-22T01:06:12.745Z,13.90
2017-11-22T01:06:17.024Z,13.93
2017-11-22T01:06:21.266Z,14.05
2017-11-22T01:06:26.300Z,13.95
2017-11-22T01:06:31.308Z,13.73
2017-11-22T01:06:36.334Z,13.70
2017-11-22T01:06:41.356Z,13.90
2017-11-22T01:06:46.383Z,14.00
2017-11-22T01:06:51.418Z,13.87
2017-11-22T01:06:55.695Z,13.90
2017-11-22T01:07:00.718Z,13.80
2017-11-22T01:07:04.960Z,13.53
2017-11-22T01:07:09.216Z,13.40
2017-11-22T01:07:13.487Z,13.30
2017-11-22T01:07:17.741Z,13.43
2017-11-22T01:07:22.015Z,13.80
2017-11-22T01:07:26.261Z,13.90
2017-11-22T01:07:30.503Z,14.23
2017-11-22T01:07:35.524Z,14.25
2017-11-22T01:07:40.568Z,14.27
2017-11-22T01:07:44.841Z,14.33
2017-11-22T01:07:49.864Z,14.40
2017-11-22T01:07:54.887Z,14.27
2017-11-22T01:07:59.138Z,14.20
2017-11-22T01:08:03.410Z,14.30
2017-11-22T01:08:07.675Z,14.25
2017-11-22T01:08:12.691Z,14.30
2017-11-22T01:08:17.710Z,14.10
2017-11-22T01:08:22.739Z,13.80
2017-11-22T01:08:27.788Z,13.60
2017-11-22T01:08:32.043Z,13.50
2017-11-22T01:08:37.074Z,13.37
2017-11-22T01:08:42.096Z,13.30
2017-11-22T01:08:47.129Z,13.27
2017-11-22T01:08:51.416Z,13.20
2017-11-22T01:08:56.439Z,13.25
2017-11-22T01:09:00.689Z,13.30
2017-11-22T01:09:04.955Z,13.30
2017-11-22T01:09:09.235Z,13.30
2017-11-22T01:09:14.262Z,13.20
2017-11-22T01:09:18.509Z,13.20
2017-11-22T01:09:22.767Z,13.25
2017-11-22T01:09:27.013Z,13.27
2017-11-22T01:09:31.297Z,13.10
2017-11-22T01:09:35.555Z,13.10
2017-11-22T01:09:40.568Z,13.20
2017-11-22T01:09:45.608Z,13.20
2017-11-22T01:09:49.862Z,13.50
2017-11-22T01:09:54.125Z,13.60
2017-11-22T01:09:58.373Z,13.40
2017-11-22T01:10:02.631Z,13.50
2017-11-22T01:10:06.895Z,13.70
2017-11-22T01:10:11.167Z,13.70
2017-11-22T01:10:15.433Z,13.75
2017-11-22T01:10:19.713Z,13.75
2017-11-22T01:10:23.987Z,13.67
2017-11-22T01:10:29.019Z,13.60
2017-11-22T01:10:33.277Z,13.70
2017-11-22T01:10:37.518Z,13.70
2017-11-22T01:10:41.800Z,13.70
2017-11-22T01:10:46.831Z,13.60
2017-11-22T01:10:51.857Z,13.37
2017-11-22T01:10:56.115Z,13.23
2017-11-22T01:11:00.376Z,13.25
2017-11-22T01:11:04.638Z,13.17
2017-11-22T01:11:09.685Z,12.90
2017-11-22T01:11:13.953Z,12.80
2017-11-22T01:11:18.207Z,12.95
2017-11-22T01:11:22.462Z,12.87
2017-11-22T01:11:27.496Z,13.00
2017-11-22T01:11:31.758Z,13.10
2017-11-22T01:11:36.019Z,13.00
2017-11-22T01:11:40.280Z,13.00
2017-11-22T01:11:45.305Z,13.00
2017-11-22T01:11:50.338Z,13.00
2017-11-22T01:11:54.578Z,13.10
2017-11-22T01:11:58.818Z,13.10
2017-11-22T01:12:03.834Z,13.00
2017-11-22T01:12:08.858Z,13.03
2017-11-22T01:12:13.911Z,13.23
2017-11-22T01:12:18.179Z,13.33
2017-11-22T01:12:23.189Z,13.57
2017-11-22T01:12:28.217Z,13.47
2017-11-22T01:12:33.262Z,13.30
2017-11-22T01:12:37.506Z,13.23
2017-11-22T01:12:41.765Z,13.20
2017-11-22T01:12:46.049Z,13.20
2017-11-22T01:12:50.301Z,13.13
2017-11-22T01:12:54.541Z,13.25
2017-11-22T01:12:58.795Z,13.45
2017-11-22T01:13:03.041Z,13.63
2017-11-22T01:13:07.314Z,13.50
2017-11-22T01:13:11.577Z,13.70
2017-11-22T01:13:15.820Z,13.55
2017-11-22T01:13:20.851Z,13.07
2017-11-22T01:13:25.890Z,12.83
2017-11-22T01:13:30.152Z,12.90
2017-11-22T01:13:34.475Z,13.25
2017-11-22T01:13:39.485Z,13.30
2017-11-22T01:13:44.515Z,13.27
2017-11-22T01:13:49.543Z,13.33
2017-11-22T01:13:53.795Z,13.45
2017-11-22T01:13:58.088Z,13.50
2017-11-22T01:14:02.344Z,13.40
2017-11-22T01:14:07.370Z,13.55
2017-11-22T01:14:11.672Z,13.40
2017-11-22T01:14:15.938Z,13.67
2017-11-22T01:14:20.969Z,13.90
2017-11-22T01:14:25.988Z,14.00
2017-11-22T01:14:30.255Z,14.00
2017-11-22T01:14:35.286Z,13.90
2017-11-22T01:14:40.300Z,13.80
2017-11-22T01:14:44.548Z,13.88
2017-11-22T01:14:48.840Z,13.90
2017-11-22T01:14:53.108Z,13.95
2017-11-22T01:14:57.390Z,14.00
2017-11-22T01:15:01.659Z,14.07
2017-11-22T01:15:05.905Z,14.20
2017-11-22T01:15:10.169Z,14.20
2017-11-22T01:15:15.205Z,14.07
2017-11-22T01:15:19.495Z,13.97
2017-11-22T01:15:23.756Z,14.00
2017-11-22T01:15:28.001Z,14.00
2017-11-22T01:15:32.271Z,13.95
2017-11-22T01:15:36.531Z,14.13
2017-11-22T01:15:41.565Z,14.10
2017-11-22T01:15:46.598Z,14.10
2017-11-22T01:15:51.622Z,14.10
2017-11-22T01:15:55.876Z,13.93
2017-11-22T01:16:00.151Z,13.75
2017-11-22T01:16:04.409Z,13.53
2017-11-22T01:16:08.674Z,13.60
2017-11-22T01:16:12.930Z,13.60
2017-11-22T01:16:17.204Z,13.60
2017-11-22T01:16:21.476Z,13.60
2017-11-22T01:16:25.730Z,13.60
2017-11-22T01:16:29.973Z,13.70
2017-11-22T01:16:34.249Z,13.73
2017-11-22T01:16:38.507Z,13.60
2017-11-22T01:16:43.525Z,13.75
2017-11-22T01:16:48.547Z,14.00
2017-11-22T01:16:52.801Z,14.20
2017-11-22T01:16:57.062Z,14.33
2017-11-22T01:17:01.323Z,14.40
2017-11-22T01:17:05.566Z,14.60
2017-11-22T01:17:09.831Z,14.70
2017-11-22T01:17:14.863Z,14.80
2017-11-22T01:17:19.877Z,15.00
2017-11-22T01:17:24.897Z,14.90
2017-11-22T01:17:29.146Z,14.87
2017-11-22T01:17:33.394Z,14.80
2017-11-22T01:17:37.669Z,14.80
2017-11-22T01:17:41.921Z,14.70
2017-11-22T01:17:46.203Z,14.35
2017-11-22T01:17:51.245Z,14.30
2017-11-22T01:17:55.492Z,14.40
2017-11-22T01:17:59.740Z,14.57
2017-11-22T01:18:04.001Z,14.35
2017-11-22T01:18:08.259Z,14.15
2017-11-22T01:18:12.512Z,14.15
2017-11-22T01:18:17.538Z,13.83
2017-11-22T01:18:21.846Z,13.70
2017-11-22T01:18:26.090Z,14.00
2017-11-22T01:18:30.356Z,14.00
2017-11-22T01:18:34.620Z,14.00
2017-11-22T01:18:38.873Z,14.15
2017-11-22T01:18:43.144Z,14.30
2017-11-22T01:18:47.401Z,14.50
2017-11-22T01:18:51.664Z,14.43
2017-11-22T01:18:55.924Z,14.50
2017-11-22T01:19:00.950Z,14.35
2017-11-22T01:19:05.215Z,14.37
2017-11-22T01:19:09.469Z,14.50
2017-11-22T01:19:13.724Z,14.70
2017-11-22T01:19:17.977Z,14.90
2017-11-22T01:19:22.221Z,15.05
2017-11-22T01:19:26.503Z,14.93
2017-11-22T01:19:30.762Z,14.80
2017-11-22T01:19:35.786Z,14.70
2017-11-22T01:19:40.045Z,14.50
2017-11-22T01:19:44.302Z,14.50
2017-11-22T01:19:48.549Z,14.85
2017-11-22T01:19:52.812Z,14.85
2017-11-22T01:19:57.069Z,14.60
2017-11-22T01:20:02.087Z,14.63
2017-11-22T01:20:07.112Z,14.73
2017-11-22T01:20:12.173Z,14.70
2017-11-22T01:20:16.426Z,14.77
2017-11-22T01:20:21.464Z,14.80
2017-11-22T01:20:25.731Z,14.73
2017-11-22T01:20:29.976Z,14.70
2017-11-22T01:20:34.255Z,14.75
2017-11-22T01:20:39.268Z,14.90
2017-11-22T01:20:44.289Z,14.87
2017-11-22T01:20:49.310Z,14.43
2017-11-22T01:20:53.577Z,14.47
2017-11-22T01:20:57.854Z,14.45
2017-11-22T01:21:02.120Z,14.40
2017-11-22T01:21:06.380Z,14.45
2017-11-22T01:21:10.651Z,14.50
2017-11-22T01:21:14.905Z,14.40
2017-11-22T01:21:19.943Z,14.30
2017-11-22T01:21:24.195Z,14.27
2017-11-22T01:21:28.459Z,14.25
2017-11-22T01:21:32.701Z,14.47
2017-11-22T01:21:36.939Z,14.40
2017-11-22T01:21:41.211Z,14.40
2017-11-22T01:21:45.491Z,14.65
2017-11-22T01:21:49.732Z,14.70
2017-11-22T01:21:53.983Z,14.50
2017-11-22T01:21:58.248Z,14.45
2017-11-22T01:22:02.494Z,14.45
2017-11-22T01:22:06.760Z,14.37
2017-11-22T01:22:11.001Z,14.30
2017-11-22T01:22:15.262Z,14.10
2017-11-22T01:22:19.532Z,14.10
2017-11-22T01:22:24.560Z,13.95
2017-11-22T01:22:28.804Z,13.93
2017-11-22T01:22:33.076Z,13.65
2017-11-22T01:22:37.337Z,13.70
2017-11-22T01:22:42.390Z,13.60
2017-11-22T01:22:46.656Z,13.50
2017-11-22T01:22:51.673Z,13.30
2017-11-22T01:22:56.698Z,13.30
2017-11-22T01:23:01.705Z,13.30
2017-11-22T01:23:05.975Z,13.20
2017-11-22T01:23:10.251Z,13.20
2017-11-22T01:23:14.516Z,13.30
2017-11-22T01:23:19.529Z,13.45
2017-11-22T01:23:24.564Z,13.53
2017-11-22T01:23:28.824Z,13.63
2017-11-22T01:23:33.088Z,13.70
2017-11-22T01:23:37.340Z,13.60
2017-11-22T01:23:41.607Z,14.05
2017-11-22T01:23:45.866Z,14.00
2017-11-22T01:23:50.877Z,14.10
2017-11-22T01:23:55.150Z,14.20
2017-11-22T01:23:59.393Z,14.15
2017-11-22T01:24:03.651Z,14.10
2017-11-22T01:24:07.905Z,14.10
2017-11-22T01:24:12.180Z,14.13
2017-11-22T01:24:17.212Z,14.00
2017-11-22T01:24:21.456Z,13.97
2017-11-22T01:24:25.704Z,14.15
2017-11-22T01:24:30.725Z,14.20
2017-11-22T01:24:34.979Z,14.20
2017-11-22T01:24:39.230Z,13.95
2017-11-22T01:24:43.487Z,13.80
2017-11-22T01:24:47.742Z,13.70
2017-11-22T01:24:52.051Z,13.80
2017-11-22T01:24:57.067Z,13.90
2017-11-22T01:25:01.317Z,14.00
2017-11-22T01:25:05.579Z,13.95
2017-11-22T01:25:09.858Z,14.30
2017-11-22T01:25:14.098Z,14.20
2017-11-22T01:25:18.349Z,14.20
2017-11-22T01:25:22.618Z,14.20
2017-11-22T01:25:27.738Z,14.00
2017-11-22T01:25:31.988Z,14.10
2017-11-22T01:25:36.256Z,14.15
2017-11-22T01:25:41.262Z,14.25
2017-11-22T01:25:46.311Z,14.18
2017-11-22T01:25:50.591Z,14.10
2017-11-22T01:25:54.882Z,14.00
2017-11-22T01:25:59.906Z,14.00
2017-11-22T01:26:04.931Z,14.10
2017-11-22T01:26:09.942Z,13.67
2017-11-22T01:26:14.957Z,13.60
2017-11-22T01:26:19.975Z,13.50
2017-11-22T01:26:24.994Z,13.47
2017-11-22T01:26:30.025Z,13.50
2017-11-22T01:26:35.145Z,13.30
2017-11-22T01:26:40.154Z,13.30
2017-11-22T01:26:45.215Z,13.30
2017-11-22T01:26:49.488Z,13.30
2017-11-22T01:26:54.507Z,13.30
2017-11-22T01:26:58.802Z,13.27
2017-11-22T01:27:03.827Z,13.05
2017-11-22T01:27:08.837Z,13.40
2017-11-22T01:27:13.856Z,13.57
2017-11-22T01:27:18.904Z,13.43
2017-11-22T01:27:23.156Z,13.50
2017-11-22T01:27:27.453Z,13.40
2017-11-22T01:27:31.704Z,13.60
2017-11-22T01:27:35.968Z,13.50
2017-11-22T01:27:40.219Z,13.47
2017-11-22T01:27:44.475Z,13.35
2017-11-22T01:27:49.503Z,13.40
2017-11-22T01:27:53.748Z,13.27
2017-11-22T01:27:58.001Z,13.17
2017-11-22T01:28:02.277Z,13.15
2017-11-22T01:28:06.536Z,13.10
2017-11-22T01:28:10.783Z,13.10
2017-11-22T01:28:15.798Z,13.20
2017-11-22T01:28:20.809Z,13.13
2017-11-22T01:28:25.089Z,13.30
2017-11-22T01:28:29.355Z,13.10
2017-11-22T01:28:33.604Z,13.35
2017-11-22T01:28:37.878Z,13.40
2017-11-22T01:28:42.124Z,13.40
2017-11-22T01:28:47.160Z,13.75
2017-11-22T01:28:51.433Z,13.90
2017-11-22T01:28:55.676Z,13.97
2017-11-22T01:28:59.939Z,13.80
2017-11-22T01:29:04.949Z,13.80
2017-11-22T01:29:09.212Z,13.63
2017-11-22T01:29:13.476Z,13.50
2017-11-22T01:29:18.516Z,13.50
2017-11-22T01:29:22.796Z,13.50
2017-11-22T01:29:27.058Z,13.60
2017-11-22T01:29:32.137Z,13.55
2017-11-22T01:29:36.393Z,13.30
2017-11-22T01:29:40.666Z,13.60
2017-11-22T01:29:44.916Z,13.70
2017-11-22T01:29:49.174Z,13.40
2017-11-22T01:29:53.445Z,13.37
2017-11-22T01:29:57.690Z,13.55
2017-11-22T01:30:01.960Z,13.90
2017-11-22T01:30:06.198Z,13.90
2017-11-22T01:30:11.213Z,13.90
2017-11-22T01:30:16.244Z,13.83
2017-11-22T01:30:20.509Z,14.10
2017-11-22T01:30:24.790Z,13.95
2017-11-22T01:30:29.043Z,13.90
2017-11-22T01:30:34.052Z,14.00
2017-11-22T01:30:38.313Z,13.87
2017-11-22T01:30:42.570Z,13.75
2017-11-22T01:30:47.585Z,13.75
2017-11-22T01:30:52.629Z,14.23
2017-11-22T01:30:56.860Z,14.20
2017-11-22T01:31:01.104Z,14.20
2017-11-22T01:31:05.362Z,14.30
2017-11-22T01:31:09.608Z,14.35
2017-11-22T01:31:13.860Z,14.60
2017-11-22T01:31:18.118Z,14.63
2017-11-22T01:31:22.382Z,14.70
2017-11-22T01:31:26.630Z,14.80
2017-11-22T01:31:30.894Z,14.80
2017-11-22T01:31:35.155Z,14.97
2017-11-22T01:31:39.413Z,15.20
2017-11-22T01:31:43.679Z,15.20
2017-11-22T01:31:47.942Z,14.90
2017-11-22T01:31:52.221Z,14.50
2017-11-22T01:31:56.464Z,14.55
2017-11-22T01:32:00.713Z,14.50
2017-11-22T01:32:05.003Z,14.50
2017-11-22T01:32:09.242Z,14.50
2017-11-22T01:32:13.507Z,14.45
2017-11-22T01:32:18.525Z,14.37
2017-11-22T01:32:23.532Z,14.23
2017-11-22T01:32:28.554Z,14.27
2017-11-22T01:32:33.565Z,14.23
2017-11-22T01:32:38.547Z,14.07
2017-11-22T01:32:42.800Z,14.03
2017-11-22T01:32:47.073Z,13.95
2017-11-22T01:32:51.321Z,13.85
2017-11-22T01:32:55.592Z,13.77
2017-11-22T01:33:00.609Z,13.55
2017-11-22T01:33:05.662Z,13.50
2017-11-22T01:33:09.908Z,13.57
2017-11-22T01:33:14.957Z,13.50
2017-11-22T01:33:19.978Z,13.30
2017-11-22T01:33:24.250Z,13.27
2017-11-22T01:33:28.516Z,12.93
2017-11-22T01:33:32.769Z,12.85
2017-11-22T01:33:37.806Z,13.05
2017-11-22T01:33:42.089Z,13.13
2017-11-22T01:33:47.120Z,13.40